Time;durP1;ratioP1;P1;durP2;ratioP2;P2;SDS_P1;SDS_P2;PMS_P1;PMS_P2;Temp;Humidity;BMP_temperature;BMP_pressure;BME280_temperature;BME280_humidity;BME280_pressure;Samples;Min_cycle;Max_cycle;Signal;HPM_P1;HPM_P2
2022/02/03 00:00:41;;;;;;;;;;;15.20;99.90;;;;;;5056562;28;857;-46
2022/02/03 00:06:07;;;;;;;;;;;15.20;99.90;;;;;;5074834;28;1898;-46
2022/02/03 00:11:27;;;;;;;;;;;15.10;99.90;;;;;;5039760;28;914;-46
2022/02/03 00:21:59;;;;;;;;;;;15.10;99.90;;;;;;5039843;28;925;-46
2022/02/03 00:25:29;;;;;;;;;;;15.00;99.90;;;;;;5059952;28;751;-46
2022/02/03 00:31:07;;;;;;;;;;;15.00;99.90;;;;;;5042082;28;872;-54
2022/02/03 00:33:47;;;;;;;;;;;15.00;99.90;;;;;;5074520;28;1027;-47
2022/02/03 00:49:57;;;;;;;;;;;14.90;99.90;;;;;;5044526;28;784;-46
2022/02/03 00:52:25;;;;;;;;;;;14.90;99.90;;;;;;5057716;28;839;-46
2022/02/03 00:54:58;;;;;;;;;;;14.80;99.90;;;;;;5057450;28;945;-46
2022/02/03 00:57:27;;;;;;;;;;;14.80;99.90;;;;;;5058722;28;877;-46
2022/02/03 01:00:16;;;;;;;;;;;14.80;99.90;;;;;;5059174;28;1053;-46
2022/02/03 01:02:45;;;;;;;;;;;14.80;99.90;;;;;;5059011;28;1362;-54
2022/02/03 01:05:15;;;;;;;;;;;14.80;99.90;;;;;;5061954;28;1069;-54
2022/02/03 01:07:47;;;;;;;;;;;14.80;99.90;;;;;;5057051;28;1984;-54
2022/02/03 01:10:20;;;;;;;;;;;14.70;99.90;;;;;;5075844;28;922;-54
2022/02/03 01:35:04;;;;;;;;;;;14.60;99.90;;;;;;5016704;28;1040;-54
2022/02/03 01:37:52;;;;;;;;;;;14.60;99.90;;;;;;5016780;28;844;-54
2022/02/03 01:53:49;;;;;;;;;;;14.50;99.90;;;;;;5016716;28;1085;-54
2022/02/03 01:56:19;;;;;;;;;;;14.50;99.90;;;;;;5016600;28;954;-54
2022/02/03 01:58:45;;;;;;;;;;;14.50;99.90;;;;;;5016613;28;795;-54
2022/02/03 02:01:48;;;;;;;;;;;14.50;99.90;;;;;;5051400;28;982;-54
2022/02/03 02:04:33;;;;;;;;;;;14.40;99.90;;;;;;4976658;28;863;-46
2022/02/03 02:07:17;;;;;;;;;;;14.40;99.90;;;;;;4977520;28;1899;-46
2022/02/03 02:13:07;;;;;;;;;;;14.40;99.90;;;;;;4973215;28;1217;-46
2022/02/03 02:42:53;;;;;;;;;;;14.30;99.90;;;;;;5037053;28;745;-46
2022/02/03 02:45:25;;;;;;;;;;;14.30;99.90;;;;;;5012778;28;1129;-54
2022/02/03 02:47:56;;;;;;;;;;;14.30;99.90;;;;;;5014948;28;1902;-54
2022/02/03 02:50:35;;;;;;;;;;;14.30;99.90;;;;;;4998302;28;929;-54
2022/02/03 02:53:28;;;;;;;;;;;14.20;99.90;;;;;;4980023;28;939;-54
2022/02/03 03:34:34;;;;;;;;;;;14.10;99.90;;;;;;4953553;28;989;-46
2022/02/03 03:37:05;;;;;;;;;;;14.10;99.90;;;;;;4995485;28;1018;-47
2022/02/03 03:39:40;;;;;;;;;;;14.10;99.90;;;;;;4995633;28;1019;-47
2022/02/03 03:42:14;;;;;;;;;;;14.00;99.90;;;;;;4995544;28;850;-47
2022/02/03 03:44:44;;;;;;;;;;;14.00;99.90;;;;;;4995482;28;1081;-46
2022/02/03 03:47:14;;;;;;;;;;;14.00;99.90;;;;;;4963359;28;1915;-47
2022/02/03 03:49:47;;;;;;;;;;;14.00;99.90;;;;;;4995204;28;866;-47
2022/02/03 03:52:20;;;;;;;;;;;14.00;99.90;;;;;;4964699;28;1548;-54
2022/02/03 03:55:11;;;;;;;;;;;14.00;99.90;;;;;;4998677;28;932;-46
2022/02/03 04:31:07;;;;;;;;;;;13.90;99.90;;;;;;4979315;28;859;-46
2022/02/03 05:01:55;;;;;;;;;;;13.70;99.90;;;;;;4864392;29;1172;-47
2022/02/03 05:04:39;;;;;;;;;;;13.80;99.90;;;;;;4863759;29;1338;-47
2022/02/03 05:07:45;;;;;;;;;;;13.80;99.90;;;;;;4864374;29;1902;-47
2022/02/03 05:13:42;;;;;;;;;;;13.70;99.90;;;;;;4864073;29;1266;-54
2022/02/03 05:20:15;;;;;;;;;;;13.70;99.90;;;;;;4937276;28;1625;-54
2022/02/03 05:44:57;;;;;;;;;;;13.60;99.90;;;;;;4960272;28;879;-46
2022/02/03 06:14:14;;;;;;;;;;;13.70;99.90;;;;;;5038020;28;802;-46
2022/02/03 06:27:36;;;;;;;;;;;14.00;99.90;;;;;;5057322;28;1973;-46
2022/02/03 06:30:12;;;;;;;;;;;14.00;99.90;;;;;;5047593;28;1382;-46
2022/02/03 06:33:01;;;;;;;;;;;14.10;99.90;;;;;;5060051;28;1089;-46
2022/02/03 06:35:28;;;;;;;;;;;14.20;99.90;;;;;;5053481;28;982;-46
2022/02/03 06:37:54;;;;;;;;;;;14.30;99.90;;;;;;5075820;28;868;-46
2022/02/03 06:40:20;;;;;;;;;;;14.40;99.90;;;;;;5057722;28;859;-47
2022/02/03 06:42:46;;;;;;;;;;;14.40;99.90;;;;;;5051592;28;877;-46
2022/02/03 06:45:31;;;;;;;;;;;14.50;99.90;;;;;;5056881;28;898;-46
2022/02/03 06:48:04;;;;;;;;;;;14.50;99.90;;;;;;5057235;28;1906;-46
2022/02/03 06:50:38;;;;;;;;;;;14.60;99.90;;;;;;5060714;28;797;-46
2022/02/03 06:53:16;;;;;;;;;;;14.60;99.90;;;;;;5056410;28;907;-46
2022/02/03 06:58:47;;;;;;;;;;;14.70;99.90;;;;;;4996176;28;1537;-54
2022/02/03 07:01:24;;;;;;;;;;;14.80;99.90;;;;;;4996252;28;1075;-54
2022/02/03 07:03:58;;;;;;;;;;;14.80;99.90;;;;;;5000396;28;1012;-47
2022/02/03 07:06:24;;;;;;;;;;;14.90;99.90;;;;;;5013587;28;997;-46
2022/02/03 07:08:54;;;;;;;;;;;14.90;99.90;;;;;;5013579;28;1902;-46
2022/02/03 07:11:23;;;;;;;;;;;14.90;99.90;;;;;;4978556;28;1630;-46
2022/02/03 07:13:50;;;;;;;;;;;14.90;99.90;;;;;;4979749;28;1044;-54
2022/02/03 07:16:17;;;;;;;;;;;15.00;99.90;;;;;;4995479;28;1057;-54
2022/02/03 07:18:44;;;;;;;;;;;15.00;99.90;;;;;;4979198;28;1494;-54
2022/02/03 07:21:13;;;;;;;;;;;15.00;99.90;;;;;;4995489;28;819;-54
2022/02/03 07:23:41;;;;;;;;;;;15.10;99.90;;;;;;4995712;28;1090;-54
2022/02/03 07:26:07;;;;;;;;;;;15.10;99.90;;;;;;4995691;28;864;-54
2022/02/03 07:28:34;;;;;;;;;;;15.10;99.90;;;;;;4978898;28;1914;-54
2022/02/03 07:31:01;;;;;;;;;;;15.20;99.90;;;;;;4995738;28;803;-54
2022/02/03 07:33:27;;;;;;;;;;;15.20;99.90;;;;;;5000131;28;925;-46
2022/02/03 07:35:53;;;;;;;;;;;15.20;99.90;;;;;;5051719;28;970;-46
2022/02/03 07:38:20;;;;;;;;;;;15.20;99.90;;;;;;5074784;28;1082;-46
2022/02/03 07:40:49;;;;;;;;;;;15.30;99.90;;;;;;5073523;28;973;-46
2022/02/03 07:43:15;;;;;;;;;;;15.30;99.90;;;;;;5074935;28;754;-46
2022/02/03 07:45:41;;;;;;;;;;;15.30;99.90;;;;;;5074106;28;841;-46
2022/02/03 07:48:10;;;;;;;;;;;15.30;99.90;;;;;;5064795;28;1965;-46
2022/02/03 07:50:36;;;;;;;;;;;15.30;99.90;;;;;;5056053;28;852;-46
2022/02/03 07:53:02;;;;;;;;;;;15.30;99.90;;;;;;5056333;28;883;-46
2022/02/03 07:55:29;;;;;;;;;;;15.30;99.90;;;;;;5056445;28;991;-46
2022/02/03 07:57:55;;;;;;;;;;;15.30;99.90;;;;;;5055971;28;983;-46
2022/02/03 08:00:27;;;;;;;;;;;15.30;99.90;;;;;;5021297;28;901;-46
2022/02/03 08:02:54;;;;;;;;;;;15.30;99.90;;;;;;5038510;28;895;-46
2022/02/03 08:05:22;;;;;;;;;;;15.30;99.90;;;;;;5056172;28;767;-46
2022/02/03 08:07:56;;;;;;;;;;;15.30;99.90;;;;;;5056448;28;1956;-46
2022/02/03 08:10:35;;;;;;;;;;;15.30;99.90;;;;;;5020930;28;1024;-46
2022/02/03 08:13:05;;;;;;;;;;;15.30;99.90;;;;;;5039041;28;873;-46
2022/02/03 08:15:34;;;;;;;;;;;15.30;99.90;;;;;;5039093;28;1047;-46
2022/02/03 08:18:05;;;;;;;;;;;15.30;99.90;;;;;;5056267;28;1193;-46
2022/02/03 08:20:32;;;;;;;;;;;15.30;99.90;;;;;;5021432;28;1034;-46
2022/02/03 08:25:45;;;;;;;;;;;15.30;99.90;;;;;;5040367;28;751;-46
2022/02/03 08:31:00;;;;;;;;;;;15.30;99.90;;;;;;5056111;28;778;-46
2022/02/03 08:33:26;;;;;;;;;;;15.30;99.90;;;;;;5055762;28;861;-46
2022/02/03 08:35:55;;;;;;;;;;;15.30;99.90;;;;;;5054299;28;957;-46
2022/02/03 08:38:33;;;;;;;;;;;15.30;99.90;;;;;;5055728;28;913;-46
2022/02/03 08:41:03;;;;;;;;;;;15.30;99.90;;;;;;5059470;28;798;-46
2022/02/03 08:43:37;;;;;;;;;;;15.30;99.90;;;;;;5059383;28;862;-46
2022/02/03 08:46:08;;;;;;;;;;;15.30;99.90;;;;;;5021783;28;1344;-46
2022/02/03 08:48:34;;;;;;;;;;;15.20;99.90;;;;;;5072173;28;1910;-46
2022/02/03 08:51:01;;;;;;;;;;;15.30;99.90;;;;;;5077391;28;998;-46
2022/02/03 08:56:06;;;;;;;;;;;15.30;99.90;;;;;;5059512;28;1018;-46
2022/02/03 08:58:58;;;;;;;;;;;15.30;99.90;;;;;;5007849;28;1036;-46
2022/02/03 09:34:58;;;;;;;;;;;15.40;99.90;;;;;;5013907;28;1005;-47
2022/02/03 09:51:42;;;;;;;;;;;15.40;99.90;;;;;;5042254;28;1156;-46
2022/02/03 09:59:12;;;;;;;;;;;15.30;99.90;;;;;;5007060;28;968;-46
2022/02/03 10:01:44;;;;;;;;;;;15.30;99.90;;;;;;5058134;28;944;-47
2022/02/03 10:04:25;;;;;;;;;;;15.30;99.90;;;;;;5040424;28;829;-46
2022/02/03 10:06:57;;;;;;;;;;;15.30;99.90;;;;;;5057560;28;912;-46
2022/02/03 10:09:38;;;;;;;;;;;15.30;99.90;;;;;;5056835;28;1392;-46
2022/02/03 10:12:05;;;;;;;;;;;15.30;99.90;;;;;;5039834;28;916;-46
2022/02/03 10:14:41;;;;;;;;;;;15.30;99.90;;;;;;5057664;28;948;-47
2022/02/03 10:17:14;;;;;;;;;;;15.30;99.90;;;;;;5057439;28;900;-46
2022/02/03 10:19:44;;;;;;;;;;;15.30;99.90;;;;;;5022586;28;1587;-46
2022/02/03 10:22:21;;;;;;;;;;;15.30;99.90;;;;;;5057825;28;808;-46
2022/02/03 10:24:51;;;;;;;;;;;15.30;99.90;;;;;;5006914;28;942;-46
2022/02/03 10:27:30;;;;;;;;;;;15.30;99.90;;;;;;5057315;28;1973;-46
2022/02/03 10:30:21;;;;;;;;;;;15.30;99.90;;;;;;5007733;28;917;-47
2022/02/03 10:32:49;;;;;;;;;;;15.20;99.90;;;;;;5057592;28;765;-47
2022/02/03 10:35:20;;;;;;;;;;;15.20;99.90;;;;;;5056449;28;936;-47
2022/02/03 10:38:05;;;;;;;;;;;15.20;99.90;;;;;;5041455;28;737;-47
2022/02/03 10:40:50;;;;;;;;;;;15.20;99.90;;;;;;5022523;28;896;-47
2022/02/03 10:46:24;;;;;;;;;;;15.20;99.90;;;;;;5057202;28;961;-47
2022/02/03 10:49:23;;;;;;;;;;;15.20;99.90;;;;;;5056434;28;1910;-46
2022/02/03 11:00:49;;;;;;;;;;;15.20;99.90;;;;;;5056940;28;761;-46
2022/02/03 11:03:32;;;;;;;;;;;15.30;99.90;;;;;;5055921;28;1363;-46
2022/02/03 11:11:18;;;;;;;;;;;15.30;99.90;;;;;;5057139;28;772;-54
2022/02/03 11:13:51;;;;;;;;;;;15.30;99.90;;;;;;5041469;28;1022;-54
2022/02/03 11:16:22;;;;;;;;;;;15.30;99.90;;;;;;5056761;28;809;-54
2022/02/03 11:18:50;;;;;;;;;;;15.30;99.90;;;;;;5055853;28;1194;-54
2022/02/03 11:21:18;;;;;;;;;;;15.30;99.90;;;;;;5056609;28;776;-54
2022/02/03 11:23:58;;;;;;;;;;;15.30;99.90;;;;;;5056842;28;805;-54
2022/02/03 11:26:34;;;;;;;;;;;15.30;99.90;;;;;;5074319;28;899;-54
2022/02/03 11:37:44;;;;;;;;;;;15.20;99.90;;;;;;5029078;28;1214;-54
2022/02/03 11:46:18;;;;;;;;;;;15.20;99.90;;;;;;5056841;28;798;-54
2022/02/03 11:48:57;;;;;;;;;;;15.20;99.90;;;;;;5049785;28;1981;-54
2022/02/03 11:52:14;;;;;;;;;;;15.20;99.90;;;;;;5039852;28;932;-54
2022/02/03 12:00:04;;;;;;;;;;;15.10;99.90;;;;;;5074629;28;790;-54
2022/02/03 12:06:22;;;;;;;;;;;15.10;99.90;;;;;;5012192;28;925;-46
2022/02/03 12:22:38;;;;;;;;;;;15.10;99.90;;;;;;5043183;28;1373;-46
2022/02/03 12:25:25;;;;;;;;;;;15.00;99.90;;;;;;5078376;28;737;-46
2022/02/03 12:28:08;;;;;;;;;;;15.00;99.90;;;;;;5078017;28;1910;-46
2022/02/03 12:30:51;;;;;;;;;;;15.00;99.90;;;;;;5047090;28;1120;-46
2022/02/03 12:38:49;;;;;;;;;;;15.00;99.90;;;;;;5058601;28;801;-46
2022/02/03 12:44:26;;;;;;;;;;;15.00;99.90;;;;;;5028369;28;1125;-46
2022/02/03 12:47:02;;;;;;;;;;;15.00;99.90;;;;;;4992093;28;1025;-46
2022/02/03 12:49:32;;;;;;;;;;;15.00;99.90;;;;;;5053931;28;1973;-46
2022/02/03 12:52:18;;;;;;;;;;;15.00;99.90;;;;;;5058933;28;897;-54
2022/02/03 12:54:49;;;;;;;;;;;15.00;99.90;;;;;;5042219;28;756;-46
2022/02/03 12:57:25;;;;;;;;;;;15.00;99.90;;;;;;5041163;28;853;-46
2022/02/03 13:00:15;;;;;;;;;;;15.00;99.90;;;;;;5059419;28;894;-46
2022/02/03 13:02:49;;;;;;;;;;;15.00;99.90;;;;;;5037588;28;873;-46
2022/02/03 13:05:18;;;;;;;;;;;15.00;99.90;;;;;;5055783;28;799;-46
2022/02/03 13:07:45;;;;;;;;;;;15.00;99.90;;;;;;5059023;28;1907;-46
2022/02/03 13:10:16;;;;;;;;;;;15.00;99.90;;;;;;5058809;28;908;-46
2022/02/03 13:12:50;;;;;;;;;;;15.00;99.90;;;;;;5058603;28;1543;-46
2022/02/03 13:15:29;;;;;;;;;;;15.00;99.90;;;;;;5064280;28;1288;-46
2022/02/03 13:17:59;;;;;;;;;;;15.00;99.90;;;;;;5067579;28;1046;-46
2022/02/03 13:20:35;;;;;;;;;;;15.00;99.90;;;;;;5040795;28;1405;-47
2022/02/03 13:23:06;;;;;;;;;;;15.00;99.90;;;;;;5058025;28;1040;-47
2022/02/03 13:25:55;;;;;;;;;;;14.90;99.90;;;;;;5039847;28;1081;-46
2022/02/03 13:33:51;;;;;;;;;;;14.90;99.90;;;;;;5058366;28;865;-54
2022/02/03 13:36:30;;;;;;;;;;;14.90;99.90;;;;;;5053638;28;765;-54
2022/02/03 13:39:13;;;;;;;;;;;14.90;99.90;;;;;;5058556;28;871;-46
2022/02/03 13:41:41;;;;;;;;;;;14.90;99.90;;;;;;5058228;28;968;-46
2022/02/03 13:44:16;;;;;;;;;;;14.90;99.90;;;;;;5058146;28;850;-46
2022/02/03 13:46:46;;;;;;;;;;;14.90;99.90;;;;;;5056786;28;950;-47
2022/02/03 13:49:14;;;;;;;;;;;14.80;99.90;;;;;;5058357;28;1906;-48
2022/02/03 13:51:46;;;;;;;;;;;14.90;99.90;;;;;;5020021;28;1049;-46
2022/02/03 13:54:36;;;;;;;;;;;14.80;99.90;;;;;;5039875;28;953;-47
2022/02/03 14:22:02;;;;;;;;;;;14.70;99.90;;;;;;5057362;28;846;-54
2022/02/03 14:29:46;;;;;;;;;;;14.70;99.90;;;;;;5057246;28;1902;-54
2022/02/03 14:32:16;;;;;;;;;;;14.70;99.90;;;;;;5022232;28;962;-54
2022/02/03 14:34:44;;;;;;;;;;;14.70;99.90;;;;;;5057193;28;813;-54
2022/02/03 14:39:56;;;;;;;;;;;14.80;99.90;;;;;;5057226;28;872;-54
2022/02/03 14:42:24;;;;;;;;;;;14.80;99.90;;;;;;5053569;28;819;-54
2022/02/03 14:44:52;;;;;;;;;;;14.80;99.90;;;;;;5022153;28;965;-54
2022/02/03 14:47:22;;;;;;;;;;;14.80;99.90;;;;;;5057282;28;866;-54
2022/02/03 14:49:48;;;;;;;;;;;14.80;99.90;;;;;;5006011;28;1961;-54
2022/02/03 14:53:03;;;;;;;;;;;14.80;99.90;;;;;;5057059;28;787;-54
2022/02/03 14:58:04;;;;;;;;;;;14.80;99.90;;;;;;5056970;28;818;-54
2022/02/03 15:00:36;;;;;;;;;;;14.80;99.90;;;;;;5057308;28;815;-54
2022/02/03 15:03:03;;;;;;;;;;;14.80;99.90;;;;;;5041244;28;835;-54
2022/02/03 15:05:32;;;;;;;;;;;14.80;99.90;;;;;;5075042;28;770;-54
2022/02/03 15:08:03;;;;;;;;;;;14.80;99.90;;;;;;5074959;28;1905;-54
2022/02/03 15:10:43;;;;;;;;;;;14.80;99.90;;;;;;5075028;28;821;-54
2022/02/03 15:13:16;;;;;;;;;;;14.80;99.90;;;;;;5056814;28;963;-54
2022/02/03 15:15:45;;;;;;;;;;;14.80;99.90;;;;;;5058615;28;809;-54
2022/02/03 15:18:15;;;;;;;;;;;14.80;99.90;;;;;;5064969;28;872;-54
2022/02/03 15:20:42;;;;;;;;;;;14.80;99.90;;;;;;5052555;28;1286;-54
2022/02/03 15:23:08;;;;;;;;;;;14.80;99.90;;;;;;5056850;28;767;-46
2022/02/03 15:25:35;;;;;;;;;;;14.70;99.90;;;;;;5056910;28;857;-46
2022/02/03 15:28:01;;;;;;;;;;;14.70;99.90;;;;;;5038680;28;1963;-46
2022/02/03 15:30:27;;;;;;;;;;;14.70;99.90;;;;;;5055114;28;1021;-46
2022/02/03 15:32:53;;;;;;;;;;;14.70;99.90;;;;;;5055051;28;946;-46
2022/02/03 15:35:34;;;;;;;;;;;14.70;99.90;;;;;;5004485;28;1207;-46
2022/02/03 15:38:03;;;;;;;;;;;14.70;99.90;;;;;;5034535;28;887;-46
2022/02/03 15:40:31;;;;;;;;;;;14.70;99.90;;;;;;5056181;28;1019;-46
2022/02/03 15:45:48;;;;;;;;;;;14.70;99.90;;;;;;5056670;28;839;-46
2022/02/03 15:56:07;;;;;;;;;;;14.70;99.90;;;;;;5078433;28;809;-46
2022/02/03 15:57:18;;;;;;;;;;;14.60;99.90;;;;;;5078733;28;852;-46
2022/02/03 16:18:33;;;;;;;;;;;14.60;99.90;;;;;;5059636;28;1123;-46
2022/02/03 16:21:10;;;;;;;;;;;14.70;99.90;;;;;;5059822;28;792;-46
2022/02/03 16:54:14;;;;;;;;;;;14.60;99.90;;;;;;4998179;28;820;-46
2022/02/03 16:56:42;;;;;;;;;;;14.60;99.90;;;;;;5008654;28;970;-46
2022/02/03 16:59:31;;;;;;;;;;;14.70;99.90;;;;;;5057744;28;741;-46
2022/02/03 17:01:57;;;;;;;;;;;14.60;99.90;;;;;;5040301;28;941;-46
2022/02/03 17:04:24;;;;;;;;;;;14.60;99.90;;;;;;5058171;28;810;-46
2022/02/03 17:07:10;;;;;;;;;;;14.60;99.90;;;;;;5044137;28;1086;-46
2022/02/03 17:09:39;;;;;;;;;;;14.60;99.90;;;;;;5058841;28;1971;-46
2022/02/03 17:12:18;;;;;;;;;;;14.60;99.90;;;;;;5007720;28;1266;-54
2022/02/03 17:14:46;;;;;;;;;;;14.60;99.90;;;;;;5061585;28;820;-54
2022/02/03 17:17:12;;;;;;;;;;;14.50;99.90;;;;;;5077420;28;778;-54
2022/02/03 17:19:40;;;;;;;;;;;14.50;99.90;;;;;;5041715;28;1043;-54
2022/02/03 17:22:09;;;;;;;;;;;14.50;99.90;;;;;;5026381;28;846;-55
2022/02/03 17:24:39;;;;;;;;;;;14.50;99.90;;;;;;5076920;28;946;-54
2022/02/03 17:27:12;;;;;;;;;;;14.50;99.90;;;;;;5076653;28;1238;-47
2022/02/03 17:29:54;;;;;;;;;;;14.50;99.90;;;;;;5042469;28;1950;-47
2022/02/03 18:03:28;;;;;;;;;;;14.60;99.90;;;;;;4980908;28;938;-47
2022/02/03 18:29:11;;;;;;;;;;;14.60;99.90;;;;;;4996718;28;826;-54
2022/02/03 18:31:03;;;;;;;;;;;14.50;99.90;;;;;;5013656;28;1031;-54
2022/02/03 18:48:38;;;;;;;;;;;14.50;99.90;;;;;;5034017;28;898;-54
2022/02/03 18:58:26;;;;;;;;;;;14.50;99.90;;;;;;4975836;28;1015;-54
2022/02/03 19:26:27;;;;;;;;;;;14.50;99.90;;;;;;4899817;29;1067;-47
2022/02/03 20:06:48;;;;;;;;;;;14.50;99.90;;;;;;5055921;28;747;-46
2022/02/03 20:12:00;;;;;;;;;;;14.50;99.90;;;;;;5055232;28;1975;-46
2022/02/03 20:14:27;;;;;;;;;;;14.50;99.90;;;;;;5005304;28;1047;-47
2022/02/03 20:16:54;;;;;;;;;;;14.50;99.90;;;;;;5048436;28;1024;-54
2022/02/03 20:19:22;;;;;;;;;;;14.50;99.90;;;;;;5005016;28;1191;-54
2022/02/03 20:21:48;;;;;;;;;;;14.50;99.90;;;;;;4962436;28;954;-54
2022/02/03 20:24:15;;;;;;;;;;;14.50;99.90;;;;;;4995138;28;1036;-54
2022/02/03 20:26:42;;;;;;;;;;;14.50;99.90;;;;;;4995208;28;839;-54
2022/02/03 20:29:09;;;;;;;;;;;14.50;99.90;;;;;;4994791;28;1910;-54
2022/02/03 20:31:35;;;;;;;;;;;14.50;99.90;;;;;;4995039;28;1242;-54
2022/02/03 20:34:02;;;;;;;;;;;14.50;99.90;;;;;;4980036;28;967;-54
2022/02/03 20:36:28;;;;;;;;;;;14.40;99.90;;;;;;4998692;28;909;-54
2022/02/03 20:38:55;;;;;;;;;;;14.50;99.90;;;;;;4998662;28;811;-54
2022/02/03 20:41:22;;;;;;;;;;;14.40;99.90;;;;;;4998568;28;997;-54
2022/02/03 20:43:49;;;;;;;;;;;14.40;99.90;;;;;;4998503;28;988;-54
2022/02/03 20:46:15;;;;;;;;;;;14.40;99.90;;;;;;4998616;28;1466;-54
2022/02/03 20:48:45;;;;;;;;;;;14.40;99.90;;;;;;4998233;28;1910;-54
2022/02/03 20:51:14;;;;;;;;;;;14.40;99.90;;;;;;4998199;28;1071;-46
2022/02/03 20:53:42;;;;;;;;;;;14.40;99.90;;;;;;5049254;28;910;-46
2022/02/03 20:56:10;;;;;;;;;;;14.40;99.90;;;;;;5041261;28;889;-46
2022/02/03 20:58:38;;;;;;;;;;;14.40;99.90;;;;;;5059318;28;730;-47
2022/02/03 21:01:28;;;;;;;;;;;14.40;99.90;;;;;;5059425;28;698;-54
2022/02/03 21:04:05;;;;;;;;;;;14.50;99.90;;;;;;5059154;28;801;-55
2022/02/03 21:06:35;;;;;;;;;;;14.40;99.90;;;;;;5024340;28;1140;-54
2022/02/03 21:09:05;;;;;;;;;;;14.40;99.90;;;;;;5076351;28;1906;-54
2022/02/03 21:11:31;;;;;;;;;;;14.40;99.90;;;;;;5042659;28;921;-54
2022/02/03 21:13:58;;;;;;;;;;;14.40;99.90;;;;;;5063266;28;1337;-54
2022/02/03 21:16:26;;;;;;;;;;;14.40;99.90;;;;;;5058458;28;1020;-54
2022/02/03 21:18:55;;;;;;;;;;;14.40;99.90;;;;;;5058476;28;1049;-54
2022/02/03 21:21:22;;;;;;;;;;;14.40;99.90;;;;;;5059040;28;791;-54
2022/02/03 21:23:49;;;;;;;;;;;14.40;99.90;;;;;;5058201;28;990;-46
2022/02/03 21:26:28;;;;;;;;;;;14.40;99.90;;;;;;5058875;28;838;-46
2022/02/03 21:28:56;;;;;;;;;;;14.40;99.90;;;;;;5040654;28;1901;-46
2022/02/03 21:31:23;;;;;;;;;;;14.40;99.90;;;;;;5039816;28;912;-46
2022/02/03 21:33:54;;;;;;;;;;;14.40;99.90;;;;;;5039683;28;1185;-46
2022/02/03 21:36:23;;;;;;;;;;;14.40;99.90;;;;;;5058408;28;848;-47
2022/02/03 21:38:49;;;;;;;;;;;14.40;99.90;;;;;;5023845;28;985;-47
2022/02/03 21:41:17;;;;;;;;;;;14.40;99.90;;;;;;5058659;28;910;-46
2022/02/03 21:43:48;;;;;;;;;;;14.40;99.90;;;;;;5057948;28;1256;-47
2022/02/03 21:46:15;;;;;;;;;;;14.40;99.90;;;;;;5040058;28;878;-47
2022/02/03 21:48:47;;;;;;;;;;;14.40;99.90;;;;;;5058592;28;1894;-47
2022/02/03 21:51:15;;;;;;;;;;;14.40;99.90;;;;;;5023329;28;1103;-46
2022/02/03 21:53:42;;;;;;;;;;;14.40;99.90;;;;;;5023547;28;938;-46
2022/02/03 21:56:08;;;;;;;;;;;14.40;99.90;;;;;;5023551;28;972;-46
2022/02/03 21:58:36;;;;;;;;;;;14.40;99.90;;;;;;5040011;28;948;-46
2022/02/03 22:01:02;;;;;;;;;;;14.40;99.90;;;;;;5057875;28;1063;-46
2022/02/03 22:03:30;;;;;;;;;;;14.40;99.90;;;;;;5057960;28;862;-46
2022/02/03 22:05:58;;;;;;;;;;;14.40;99.90;;;;;;5040026;28;952;-47
2022/02/03 22:08:26;;;;;;;;;;;14.40;99.90;;;;;;5022773;28;1294;-54
2022/02/03 22:10:56;;;;;;;;;;;14.40;99.90;;;;;;5039028;28;1985;-54
2022/02/03 22:13:32;;;;;;;;;;;14.40;99.90;;;;;;5023188;28;1013;-54
2022/02/03 22:16:04;;;;;;;;;;;14.40;99.90;;;;;;5040680;28;875;-54
2022/02/03 22:18:38;;;;;;;;;;;14.30;99.90;;;;;;5038633;28;1340;-54
2022/02/03 22:21:13;;;;;;;;;;;14.30;99.90;;;;;;5057787;28;749;-54
2022/02/03 22:45:57;;;;;;;;;;;14.20;99.90;;;;;;5014287;28;794;-54
2022/02/03 22:48:26;;;;;;;;;;;14.20;99.90;;;;;;4955892;28;846;-54
2022/02/03 22:50:58;;;;;;;;;;;14.10;99.90;;;;;;4995728;28;1980;-55
2022/02/03 22:53:32;;;;;;;;;;;14.10;99.90;;;;;;4994493;28;1003;-54
2022/02/03 22:55:59;;;;;;;;;;;14.10;99.90;;;;;;4995372;28;1142;-46
2022/02/03 22:58:53;;;;;;;;;;;14.10;99.90;;;;;;4994598;28;1038;-46
2022/02/03 23:01:15;;;;;;;;;;;14.10;99.90;;;;;;4994905;28;1222;-46
2022/02/03 23:03:42;;;;;;;;;;;14.10;99.90;;;;;;5016199;28;1003;-47
2022/02/03 23:06:10;;;;;;;;;;;14.00;99.90;;;;;;5034805;28;918;-46
2022/02/03 23:14:39;;;;;;;;;;;14.00;99.90;;;;;;5053580;28;833;-46
2022/02/03 23:17:32;;;;;;;;;;;13.90;99.90;;;;;;5053068;28;1718;-47
2022/02/03 23:22:38;;;;;;;;;;;13.90;99.90;;;;;;5035180;28;1028;-47
2022/02/03 23:25:07;;;;;;;;;;;13.90;99.90;;;;;;5035243;28;947;-46
2022/02/03 23:28:28;;;;;;;;;;;13.90;99.90;;;;;;5051144;28;1012;-46
2022/02/03 23:30:23;;;;;;;;;;;13.90;99.90;;;;;;5046756;28;1910;-46
2022/02/03 23:32:51;;;;;;;;;;;13.90;99.90;;;;;;5056389;28;1016;-46
2022/02/03 23:35:42;;;;;;;;;;;13.80;99.90;;;;;;5053702;28;745;-46
2022/02/03 23:47:09;;;;;;;;;;;13.80;99.90;;;;;;5056537;28;758;-54
